sensor_id;sensor_type;location;lat;lon;timestamp;temperature;humidity
19180;DHT22;9722;48.754;8.868;2023-01-19T00:02:11;-5.00;98.10
19180;DHT22;9722;48.754;8.868;2023-01-19T00:05:32;-5.10;98.00
19180;DHT22;9722;48.754;8.868;2023-01-19T00:08:54;-5.10;98.20
19180;DHT22;9722;48.754;8.868;2023-01-19T00:12:15;-5.10;98.40
19180;DHT22;9722;48.754;8.868;2023-01-19T00:15:36;-5.10;98.70
19180;DHT22;9722;48.754;8.868;2023-01-19T00:18:56;-5.10;98.80
19180;DHT22;9722;48.754;8.868;2023-01-19T00:22:17;-5.10;98.70
19180;DHT22;9722;48.754;8.868;2023-01-19T00:25:38;-5.10;98.80
19180;DHT22;9722;48.754;8.868;2023-01-19T00:29:04;-5.10;98.80
19180;DHT22;9722;48.754;8.868;2023-01-19T00:32:26;-5.00;98.80
19180;DHT22;9722;48.754;8.868;2023-01-19T00:35:50;-5.00;98.80
19180;DHT22;9722;48.754;8.868;2023-01-19T00:39:12;-5.00;98.80
19180;DHT22;9722;48.754;8.868;2023-01-19T00:42:32;-5.10;98.80
19180;DHT22;9722;48.754;8.868;2023-01-19T00:46:05;-5.10;98.80
19180;DHT22;9722;48.754;8.868;2023-01-19T00:49:25;-5.10;98.80
19180;DHT22;9722;48.754;8.868;2023-01-19T00:52:46;-5.10;99.10
19180;DHT22;9722;48.754;8.868;2023-01-19T00:56:06;-5.10;99.30
19180;DHT22;9722;48.754;8.868;2023-01-19T00:59:27;-5.10;99.70
19180;DHT22;9722;48.754;8.868;2023-01-19T01:02:50;-5.00;99.30
19180;DHT22;9722;48.754;8.868;2023-01-19T01:06:11;-5.00;99.20
19180;DHT22;9722;48.754;8.868;2023-01-19T01:09:31;-5.00;99.10
19180;DHT22;9722;48.754;8.868;2023-01-19T01:12:52;-5.10;99.10
19180;DHT22;9722;48.754;8.868;2023-01-19T01:16:16;-5.10;99.20
19180;DHT22;9722;48.754;8.868;2023-01-19T01:19:37;-5.10;99.10
19180;DHT22;9722;48.754;8.868;2023-01-19T01:22:57;-5.10;99.10
19180;DHT22;9722;48.754;8.868;2023-01-19T01:26:18;-5.20;99.00
19180;DHT22;9722;48.754;8.868;2023-01-19T01:29:38;-5.20;99.10
19180;DHT22;9722;48.754;8.868;2023-01-19T01:33:00;-5.20;99.40
19180;DHT22;9722;48.754;8.868;2023-01-19T01:36:21;-5.10;99.70
19180;DHT22;9722;48.754;8.868;2023-01-19T01:39:41;-5.00;99.90
19180;DHT22;9722;48.754;8.868;2023-01-19T01:43:02;-4.80;99.90
19180;DHT22;9722;48.754;8.868;2023-01-19T01:46:24;-4.60;99.90
19180;DHT22;9722;48.754;8.868;2023-01-19T01:49:45;-4.40;99.90
19180;DHT22;9722;48.754;8.868;2023-01-19T01:53:11;-4.20;99.90
19180;DHT22;9722;48.754;8.868;2023-01-19T01:56:38;-4.10;99.90
19180;DHT22;9722;48.754;8.868;2023-01-19T02:00:01;-4.00;99.90
19180;DHT22;9722;48.754;8.868;2023-01-19T02:03:23;-3.90;99.90
19180;DHT22;9722;48.754;8.868;2023-01-19T02:06:45;-3.90;99.80
19180;DHT22;9722;48.754;8.868;2023-01-19T02:10:25;-4.00;99.30
19180;DHT22;9722;48.754;8.868;2023-01-19T02:14:05;-4.10;99.20
19180;DHT22;9722;48.754;8.868;2023-01-19T02:17:26;-4.30;99.10
19180;DHT22;9722;48.754;8.868;2023-01-19T02:24:31;-4.40;99.10
19180;DHT22;9722;48.754;8.868;2023-01-19T02:27:52;-4.50;99.30
19180;DHT22;9722;48.754;8.868;2023-01-19T02:31:13;-4.50;99.40
19180;DHT22;9722;48.754;8.868;2023-01-19T02:34:34;-4.50;99.60
19180;DHT22;9722;48.754;8.868;2023-01-19T02:37:55;-4.60;99.60
19180;DHT22;9722;48.754;8.868;2023-01-19T02:41:20;-4.60;99.50
19180;DHT22;9722;48.754;8.868;2023-01-19T02:44:44;-4.60;99.50
19180;DHT22;9722;48.754;8.868;2023-01-19T02:48:06;-4.60;99.80
19180;DHT22;9722;48.754;8.868;2023-01-19T02:51:27;-4.60;99.80
19180;DHT22;9722;48.754;8.868;2023-01-19T02:58:32;-4.60;99.80
19180;DHT22;9722;48.754;8.868;2023-01-19T03:02:17;-4.60;99.60
19180;DHT22;9722;48.754;8.868;2023-01-19T03:09:44;-4.70;99.70
19180;DHT22;9722;48.754;8.868;2023-01-19T03:13:10;-4.70;99.90
19180;DHT22;9722;48.754;8.868;2023-01-19T03:16:43;-4.70;99.80
19180;DHT22;9722;48.754;8.868;2023-01-19T03:20:06;-4.70;99.90
19180;DHT22;9722;48.754;8.868;2023-01-19T03:23:30;-4.70;99.90
19180;DHT22;9722;48.754;8.868;2023-01-19T03:26:57;-4.70;99.90
19180;DHT22;9722;48.754;8.868;2023-01-19T03:30:25;-4.70;99.90
19180;DHT22;9722;48.754;8.868;2023-01-19T03:33:50;-4.70;99.90
19180;DHT22;9722;48.754;8.868;2023-01-19T03:37:13;-4.60;99.90
19180;DHT22;9722;48.754;8.868;2023-01-19T03:40:35;-4.60;99.90
19180;DHT22;9722;48.754;8.868;2023-01-19T03:43:56;-4.50;99.90
19180;DHT22;9722;48.754;8.868;2023-01-19T03:47:18;-4.40;99.90
19180;DHT22;9722;48.754;8.868;2023-01-19T03:50:39;-4.30;99.90
19180;DHT22;9722;48.754;8.868;2023-01-19T03:54:00;-4.20;99.90
19180;DHT22;9722;48.754;8.868;2023-01-19T03:57:20;-4.00;99.90
19180;DHT22;9722;48.754;8.868;2023-01-19T04:00:41;-3.80;99.90
19180;DHT22;9722;48.754;8.868;2023-01-19T04:04:02;-3.80;99.90
19180;DHT22;9722;48.754;8.868;2023-01-19T04:07:22;-3.70;99.80
19180;DHT22;9722;48.754;8.868;2023-01-19T04:10:42;-3.70;99.70
19180;DHT22;9722;48.754;8.868;2023-01-19T04:14:03;-3.70;99.80
19180;DHT22;9722;48.754;8.868;2023-01-19T04:17:24;-3.60;99.80
19180;DHT22;9722;48.754;8.868;2023-01-19T04:20:44;-3.60;99.70
19180;DHT22;9722;48.754;8.868;2023-01-19T04:24:05;-3.50;99.60
19180;DHT22;9722;48.754;8.868;2023-01-19T04:27:26;-3.50;99.50
19180;DHT22;9722;48.754;8.868;2023-01-19T04:30:49;-3.50;99.40
19180;DHT22;9722;48.754;8.868;2023-01-19T04:34:10;-3.50;99.50
19180;DHT22;9722;48.754;8.868;2023-01-19T04:37:30;-3.50;99.50
19180;DHT22;9722;48.754;8.868;2023-01-19T04:40:52;-3.50;99.60
19180;DHT22;9722;48.754;8.868;2023-01-19T04:44:13;-3.40;99.60
19180;DHT22;9722;48.754;8.868;2023-01-19T04:47:33;-3.40;99.60
19180;DHT22;9722;48.754;8.868;2023-01-19T04:50:54;-3.40;99.60
19180;DHT22;9722;48.754;8.868;2023-01-19T04:54:14;-3.40;99.60
19180;DHT22;9722;48.754;8.868;2023-01-19T04:57:35;-3.40;99.60
19180;DHT22;9722;48.754;8.868;2023-01-19T05:00:55;-3.30;99.60
19180;DHT22;9722;48.754;8.868;2023-01-19T05:04:16;-3.30;99.40
19180;DHT22;9722;48.754;8.868;2023-01-19T05:07:37;-3.40;99.20
19180;DHT22;9722;48.754;8.868;2023-01-19T05:10:58;-3.40;98.90
19180;DHT22;9722;48.754;8.868;2023-01-19T05:14:19;-3.50;98.50
19180;DHT22;9722;48.754;8.868;2023-01-19T05:17:39;-3.60;98.50
19180;DHT22;9722;48.754;8.868;2023-01-19T05:21:01;-3.70;98.60
19180;DHT22;9722;48.754;8.868;2023-01-19T05:24:21;-3.80;98.80
19180;DHT22;9722;48.754;8.868;2023-01-19T05:27:42;-3.70;99.10
19180;DHT22;9722;48.754;8.868;2023-01-19T05:31:03;-3.70;99.20
19180;DHT22;9722;48.754;8.868;2023-01-19T05:34:24;-3.70;99.40
19180;DHT22;9722;48.754;8.868;2023-01-19T05:37:45;-3.60;99.20
19180;DHT22;9722;48.754;8.868;2023-01-19T05:41:05;-3.60;99.10
19180;DHT22;9722;48.754;8.868;2023-01-19T05:44:25;-3.60;99.10
19180;DHT22;9722;48.754;8.868;2023-01-19T05:47:46;-3.50;99.10
19180;DHT22;9722;48.754;8.868;2023-01-19T05:51:06;-3.60;99.00
19180;DHT22;9722;48.754;8.868;2023-01-19T05:54:27;-3.60;98.90
19180;DHT22;9722;48.754;8.868;2023-01-19T05:57:48;-3.60;98.90
19180;DHT22;9722;48.754;8.868;2023-01-19T06:01:09;-3.60;99.10
19180;DHT22;9722;48.754;8.868;2023-01-19T06:04:30;-3.60;99.20
19180;DHT22;9722;48.754;8.868;2023-01-19T06:07:51;-3.60;99.30
19180;DHT22;9722;48.754;8.868;2023-01-19T06:11:11;-3.60;99.20
19180;DHT22;9722;48.754;8.868;2023-01-19T06:14:32;-3.60;99.30
19180;DHT22;9722;48.754;8.868;2023-01-19T06:17:53;-3.50;99.60
19180;DHT22;9722;48.754;8.868;2023-01-19T06:21:13;-3.40;99.60
19180;DHT22;9722;48.754;8.868;2023-01-19T06:24:34;-3.10;99.70
19180;DHT22;9722;48.754;8.868;2023-01-19T06:27:54;-3.00;99.70
19180;DHT22;9722;48.754;8.868;2023-01-19T06:31:15;-2.90;99.00
19180;DHT22;9722;48.754;8.868;2023-01-19T06:34:35;-2.90;98.60
19180;DHT22;9722;48.754;8.868;2023-01-19T06:37:56;-3.00;98.30
19180;DHT22;9722;48.754;8.868;2023-01-19T06:41:16;-3.10;98.30
19180;DHT22;9722;48.754;8.868;2023-01-19T06:44:37;-3.20;98.50
19180;DHT22;9722;48.754;8.868;2023-01-19T06:47:58;-3.20;98.50
19180;DHT22;9722;48.754;8.868;2023-01-19T06:51:18;-3.20;98.70
19180;DHT22;9722;48.754;8.868;2023-01-19T06:54:39;-3.20;98.80
19180;DHT22;9722;48.754;8.868;2023-01-19T06:57:59;-3.00;98.80
19180;DHT22;9722;48.754;8.868;2023-01-19T07:01:20;-3.00;98.60
19180;DHT22;9722;48.754;8.868;2023-01-19T07:04:41;-3.10;98.40
19180;DHT22;9722;48.754;8.868;2023-01-19T07:08:01;-3.10;98.20
19180;DHT22;9722;48.754;8.868;2023-01-19T07:11:23;-3.30;97.80
19180;DHT22;9722;48.754;8.868;2023-01-19T07:14:43;-3.30;97.90
19180;DHT22;9722;48.754;8.868;2023-01-19T07:18:04;-3.40;98.10
19180;DHT22;9722;48.754;8.868;2023-01-19T07:21:29;-3.30;98.30
19180;DHT22;9722;48.754;8.868;2023-01-19T07:24:49;-3.30;98.40
19180;DHT22;9722;48.754;8.868;2023-01-19T07:28:10;-3.30;98.50
19180;DHT22;9722;48.754;8.868;2023-01-19T07:31:32;-3.20;98.50
19180;DHT22;9722;48.754;8.868;2023-01-19T07:34:52;-3.10;98.50
19180;DHT22;9722;48.754;8.868;2023-01-19T07:38:13;-3.00;98.40
19180;DHT22;9722;48.754;8.868;2023-01-19T07:41:34;-2.90;97.90
19180;DHT22;9722;48.754;8.868;2023-01-19T07:44:55;-2.60;97.90
19180;DHT22;9722;48.754;8.868;2023-01-19T07:48:15;-1.90;97.60
19180;DHT22;9722;48.754;8.868;2023-01-19T07:51:36;-1.20;96.70
19180;DHT22;9722;48.754;8.868;2023-01-19T07:54:56;-0.70;95.50
19180;DHT22;9722;48.754;8.868;2023-01-19T07:58:18;-0.20;94.40
19180;DHT22;9722;48.754;8.868;2023-01-19T08:01:39;0.00;93.80
19180;DHT22;9722;48.754;8.868;2023-01-19T08:05:00;0.00;93.00
19180;DHT22;9722;48.754;8.868;2023-01-19T08:08:20;-0.20;92.90
19180;DHT22;9722;48.754;8.868;2023-01-19T08:11:41;-0.40;93.10
19180;DHT22;9722;48.754;8.868;2023-01-19T08:15:01;-0.50;93.30
19180;DHT22;9722;48.754;8.868;2023-01-19T08:18:22;-0.50;93.80
19180;DHT22;9722;48.754;8.868;2023-01-19T08:21:43;0.40;93.90
19180;DHT22;9722;48.754;8.868;2023-01-19T08:25:05;1.50;92.00
19180;DHT22;9722;48.754;8.868;2023-01-19T08:28:26;2.40;89.50
19180;DHT22;9722;48.754;8.868;2023-01-19T08:31:46;3.20;84.20
19180;DHT22;9722;48.754;8.868;2023-01-19T08:35:07;3.90;78.80
19180;DHT22;9722;48.754;8.868;2023-01-19T08:38:27;4.60;76.50
19180;DHT22;9722;48.754;8.868;2023-01-19T08:41:51;5.50;74.50
19180;DHT22;9722;48.754;8.868;2023-01-19T08:45:12;5.90;73.20
19180;DHT22;9722;48.754;8.868;2023-01-19T08:48:33;6.60;72.50
19180;DHT22;9722;48.754;8.868;2023-01-19T08:51:53;7.10;71.30
19180;DHT22;9722;48.754;8.868;2023-01-19T08:55:14;7.90;67.70
19180;DHT22;9722;48.754;8.868;2023-01-19T08:58:34;7.90;65.60
19180;DHT22;9722;48.754;8.868;2023-01-19T09:01:55;7.30;64.00
19180;DHT22;9722;48.754;8.868;2023-01-19T09:05:16;7.50;64.60
19180;DHT22;9722;48.754;8.868;2023-01-19T09:08:37;8.40;63.40
19180;DHT22;9722;48.754;8.868;2023-01-19T09:11:57;8.50;60.60
19180;DHT22;9722;48.754;8.868;2023-01-19T09:15:18;7.70;60.40
19180;DHT22;9722;48.754;8.868;2023-01-19T09:18:38;7.00;61.20
19180;DHT22;9722;48.754;8.868;2023-01-19T09:21:59;7.10;62.20
19180;DHT22;9722;48.754;8.868;2023-01-19T09:25:20;7.90;61.20
19180;DHT22;9722;48.754;8.868;2023-01-19T09:28:40;8.80;59.00
19180;DHT22;9722;48.754;8.868;2023-01-19T09:32:01;9.30;58.30
19180;DHT22;9722;48.754;8.868;2023-01-19T09:35:21;8.70;57.50
19180;DHT22;9722;48.754;8.868;2023-01-19T09:38:42;7.80;58.60
19180;DHT22;9722;48.754;8.868;2023-01-19T09:45:57;6.20;61.00
19180;DHT22;9722;48.754;8.868;2023-01-19T09:49:32;5.70;62.30
19180;DHT22;9722;48.754;8.868;2023-01-19T09:53:01;5.30;63.50
19180;DHT22;9722;48.754;8.868;2023-01-19T09:56:28;4.90;63.80
19180;DHT22;9722;48.754;8.868;2023-01-19T09:59:49;4.50;64.10
19180;DHT22;9722;48.754;8.868;2023-01-19T10:03:15;4.10;65.30
19180;DHT22;9722;48.754;8.868;2023-01-19T10:06:36;3.80;66.10
19180;DHT22;9722;48.754;8.868;2023-01-19T10:10:11;3.60;66.90
19180;DHT22;9722;48.754;8.868;2023-01-19T10:13:41;3.50;67.20
19180;DHT22;9722;48.754;8.868;2023-01-19T10:24:37;3.10;68.70
19180;DHT22;9722;48.754;8.868;2023-01-19T10:27:59;3.10;68.90
19180;DHT22;9722;48.754;8.868;2023-01-19T10:31:23;3.10;69.20
19180;DHT22;9722;48.754;8.868;2023-01-19T10:34:44;3.30;69.80
19180;DHT22;9722;48.754;8.868;2023-01-19T10:38:05;4.20;69.50
19180;DHT22;9722;48.754;8.868;2023-01-19T10:41:51;6.00;67.00
19180;DHT22;9722;48.754;8.868;2023-01-19T10:45:20;8.10;63.10
19180;DHT22;9722;48.754;8.868;2023-01-19T10:48:41;9.80;58.20
19180;DHT22;9722;48.754;8.868;2023-01-19T10:52:04;11.00;55.10
19180;DHT22;9722;48.754;8.868;2023-01-19T10:55:37;12.20;53.40
19180;DHT22;9722;48.754;8.868;2023-01-19T10:59:03;12.90;51.20
19180;DHT22;9722;48.754;8.868;2023-01-19T11:02:28;12.60;49.20
19180;DHT22;9722;48.754;8.868;2023-01-19T11:05:49;12.00;50.20
19180;DHT22;9722;48.754;8.868;2023-01-19T11:09:20;12.20;50.00
19180;DHT22;9722;48.754;8.868;2023-01-19T11:12:51;13.50;49.70
19180;DHT22;9722;48.754;8.868;2023-01-19T11:16:29;14.20;47.40
19180;DHT22;9722;48.754;8.868;2023-01-19T11:20:00;13.00;47.30
19180;DHT22;9722;48.754;8.868;2023-01-19T11:23:28;11.50;48.30
19180;DHT22;9722;48.754;8.868;2023-01-19T11:26:55;10.20;49.30
19180;DHT22;9722;48.754;8.868;2023-01-19T11:30:25;9.10;51.90
19180;DHT22;9722;48.754;8.868;2023-01-19T11:40:37;7.60;54.60
19180;DHT22;9722;48.754;8.868;2023-01-19T11:44:21;7.00;55.40
19180;DHT22;9722;48.754;8.868;2023-01-19T11:47:43;6.20;56.30
19180;DHT22;9722;48.754;8.868;2023-01-19T11:51:08;5.60;57.70
19180;DHT22;9722;48.754;8.868;2023-01-19T11:54:37;5.10;58.80
19180;DHT22;9722;48.754;8.868;2023-01-19T11:58:02;4.70;59.60
19180;DHT22;9722;48.754;8.868;2023-01-19T12:01:26;4.40;60.70
19180;DHT22;9722;48.754;8.868;2023-01-19T12:04:49;4.20;61.50
19180;DHT22;9722;48.754;8.868;2023-01-19T12:08:17;4.10;62.50
19180;DHT22;9722;48.754;8.868;2023-01-19T12:11:49;4.00;63.10
19180;DHT22;9722;48.754;8.868;2023-01-19T12:15:40;3.90;63.30
19180;DHT22;9722;48.754;8.868;2023-01-19T12:19:09;3.90;64.20
19180;DHT22;9722;48.754;8.868;2023-01-19T12:22:39;3.70;64.80
19180;DHT22;9722;48.754;8.868;2023-01-19T12:26:21;3.50;65.70
19180;DHT22;9722;48.754;8.868;2023-01-19T12:29:44;3.30;66.20
19180;DHT22;9722;48.754;8.868;2023-01-19T12:36:55;3.20;67.60
19180;DHT22;9722;48.754;8.868;2023-01-19T12:40:24;3.20;68.00
19180;DHT22;9722;48.754;8.868;2023-01-19T12:43:47;3.10;68.30
19180;DHT22;9722;48.754;8.868;2023-01-19T12:50:36;2.90;69.00
19180;DHT22;9722;48.754;8.868;2023-01-19T12:53:57;2.90;69.40
19180;DHT22;9722;48.754;8.868;2023-01-19T13:01:14;2.80;70.10
19180;DHT22;9722;48.754;8.868;2023-01-19T13:04:35;2.80;70.50
19180;DHT22;9722;48.754;8.868;2023-01-19T13:11:22;2.90;71.40
19180;DHT22;9722;48.754;8.868;2023-01-19T13:14:42;2.90;71.80
19180;DHT22;9722;48.754;8.868;2023-01-19T13:18:03;3.00;72.40
19180;DHT22;9722;48.754;8.868;2023-01-19T13:21:34;3.10;72.70
19180;DHT22;9722;48.754;8.868;2023-01-19T13:25:12;3.10;73.00
19180;DHT22;9722;48.754;8.868;2023-01-19T13:28:44;3.20;73.30
19180;DHT22;9722;48.754;8.868;2023-01-19T13:32:13;3.20;73.60
19180;DHT22;9722;48.754;8.868;2023-01-19T13:35:35;3.20;74.00
19180;DHT22;9722;48.754;8.868;2023-01-19T13:38:57;3.20;74.40
19180;DHT22;9722;48.754;8.868;2023-01-19T13:42:49;3.20;74.40
19180;DHT22;9722;48.754;8.868;2023-01-19T13:46:10;3.30;75.00
19180;DHT22;9722;48.754;8.868;2023-01-19T13:49:38;3.30;75.40
19180;DHT22;9722;48.754;8.868;2023-01-19T13:53:00;3.30;75.50
19180;DHT22;9722;48.754;8.868;2023-01-19T13:56:24;3.30;75.60
19180;DHT22;9722;48.754;8.868;2023-01-19T13:59:44;3.30;75.80
19180;DHT22;9722;48.754;8.868;2023-01-19T14:03:21;3.40;76.10
19180;DHT22;9722;48.754;8.868;2023-01-19T14:06:45;3.50;76.20
19180;DHT22;9722;48.754;8.868;2023-01-19T14:10:10;3.60;76.10
19180;DHT22;9722;48.754;8.868;2023-01-19T14:13:35;3.80;76.10
19180;DHT22;9722;48.754;8.868;2023-01-19T14:17:02;3.90;75.80
19180;DHT22;9722;48.754;8.868;2023-01-19T14:20:28;3.90;75.60
19180;DHT22;9722;48.754;8.868;2023-01-19T14:23:52;3.90;75.80
19180;DHT22;9722;48.754;8.868;2023-01-19T14:27:22;3.90;75.90
19180;DHT22;9722;48.754;8.868;2023-01-19T14:31:01;3.80;75.90
19180;DHT22;9722;48.754;8.868;2023-01-19T14:37:51;3.70;76.20
19180;DHT22;9722;48.754;8.868;2023-01-19T14:41:29;3.60;76.30
19180;DHT22;9722;48.754;8.868;2023-01-19T14:44:55;3.50;76.60
19180;DHT22;9722;48.754;8.868;2023-01-19T14:48:18;3.40;76.60
19180;DHT22;9722;48.754;8.868;2023-01-19T14:51:42;3.40;76.70
19180;DHT22;9722;48.754;8.868;2023-01-19T14:55:05;3.30;76.70
19180;DHT22;9722;48.754;8.868;2023-01-19T14:58:30;3.30;76.90
19180;DHT22;9722;48.754;8.868;2023-01-19T15:01:51;3.20;77.00
19180;DHT22;9722;48.754;8.868;2023-01-19T15:05:12;3.20;78.00
19180;DHT22;9722;48.754;8.868;2023-01-19T15:08:33;3.20;77.30
19180;DHT22;9722;48.754;8.868;2023-01-19T15:11:57;3.20;77.30
19180;DHT22;9722;48.754;8.868;2023-01-19T15:15:32;3.10;77.30
19180;DHT22;9722;48.754;8.868;2023-01-19T15:18:53;3.10;77.50
19180;DHT22;9722;48.754;8.868;2023-01-19T15:22:13;3.10;77.70
19180;DHT22;9722;48.754;8.868;2023-01-19T15:25:34;3.00;77.90
19180;DHT22;9722;48.754;8.868;2023-01-19T15:28:55;3.00;78.10
19180;DHT22;9722;48.754;8.868;2023-01-19T15:32:15;2.90;78.40
19180;DHT22;9722;48.754;8.868;2023-01-19T15:35:36;2.80;78.70
19180;DHT22;9722;48.754;8.868;2023-01-19T15:38:56;2.70;78.90
19180;DHT22;9722;48.754;8.868;2023-01-19T15:42:17;2.50;79.00
19180;DHT22;9722;48.754;8.868;2023-01-19T15:45:41;2.50;79.40
19180;DHT22;9722;48.754;8.868;2023-01-19T15:49:02;2.40;79.60
19180;DHT22;9722;48.754;8.868;2023-01-19T15:52:24;2.30;79.70
19180;DHT22;9722;48.754;8.868;2023-01-19T15:55:50;2.20;80.10
19180;DHT22;9722;48.754;8.868;2023-01-19T15:59:11;2.10;80.50
19180;DHT22;9722;48.754;8.868;2023-01-19T16:02:31;2.00;80.70
19180;DHT22;9722;48.754;8.868;2023-01-19T16:05:52;1.90;80.90
19180;DHT22;9722;48.754;8.868;2023-01-19T16:09:12;1.90;81.30
19180;DHT22;9722;48.754;8.868;2023-01-19T16:12:38;1.80;81.60
19180;DHT22;9722;48.754;8.868;2023-01-19T16:16:15;1.80;81.70
19180;DHT22;9722;48.754;8.868;2023-01-19T16:19:36;1.70;81.90
19180;DHT22;9722;48.754;8.868;2023-01-19T16:22:56;1.70;82.10
19180;DHT22;9722;48.754;8.868;2023-01-19T16:26:35;1.60;82.30
19180;DHT22;9722;48.754;8.868;2023-01-19T16:29:56;1.60;82.60
19180;DHT22;9722;48.754;8.868;2023-01-19T16:33:19;1.60;82.80
19180;DHT22;9722;48.754;8.868;2023-01-19T16:36:40;1.60;83.20
19180;DHT22;9722;48.754;8.868;2023-01-19T16:40:02;1.60;83.40
19180;DHT22;9722;48.754;8.868;2023-01-19T16:43:23;1.60;83.40
19180;DHT22;9722;48.754;8.868;2023-01-19T16:46:45;1.60;83.70
19180;DHT22;9722;48.754;8.868;2023-01-19T16:50:06;1.60;83.90
19180;DHT22;9722;48.754;8.868;2023-01-19T16:53:29;1.50;84.10
19180;DHT22;9722;48.754;8.868;2023-01-19T16:56:51;1.40;84.40
19180;DHT22;9722;48.754;8.868;2023-01-19T17:00:12;1.40;84.80
19180;DHT22;9722;48.754;8.868;2023-01-19T17:03:33;1.30;85.00
19180;DHT22;9722;48.754;8.868;2023-01-19T17:06:54;1.20;85.20
19180;DHT22;9722;48.754;8.868;2023-01-19T17:10:14;1.10;85.50
19180;DHT22;9722;48.754;8.868;2023-01-19T17:13:35;1.10;85.80
19180;DHT22;9722;48.754;8.868;2023-01-19T17:16:56;1.00;86.20
19180;DHT22;9722;48.754;8.868;2023-01-19T17:20:16;0.90;86.40
19180;DHT22;9722;48.754;8.868;2023-01-19T17:23:41;0.80;86.80
19180;DHT22;9722;48.754;8.868;2023-01-19T17:27:01;0.70;87.00
19180;DHT22;9722;48.754;8.868;2023-01-19T17:30:22;0.60;87.40
19180;DHT22;9722;48.754;8.868;2023-01-19T17:33:44;0.50;87.90
19180;DHT22;9722;48.754;8.868;2023-01-19T17:37:05;0.40;88.50
19180;DHT22;9722;48.754;8.868;2023-01-19T17:40:26;0.30;88.80
19180;DHT22;9722;48.754;8.868;2023-01-19T17:43:47;0.20;89.20
19180;DHT22;9722;48.754;8.868;2023-01-19T17:47:09;0.00;89.40
19180;DHT22;9722;48.754;8.868;2023-01-19T17:50:31;-0.20;89.80
19180;DHT22;9722;48.754;8.868;2023-01-19T17:53:54;-0.30;90.10
19180;DHT22;9722;48.754;8.868;2023-01-19T17:57:15;-0.40;90.20
19180;DHT22;9722;48.754;8.868;2023-01-19T18:00:35;-0.50;90.40
19180;DHT22;9722;48.754;8.868;2023-01-19T18:03:56;-0.60;90.60
19180;DHT22;9722;48.754;8.868;2023-01-19T18:07:17;-0.70;90.80
19180;DHT22;9722;48.754;8.868;2023-01-19T18:10:38;-0.80;91.00
19180;DHT22;9722;48.754;8.868;2023-01-19T18:13:59;-0.90;91.20
19180;DHT22;9722;48.754;8.868;2023-01-19T18:17:20;-1.00;91.20
19180;DHT22;9722;48.754;8.868;2023-01-19T18:20:40;-1.00;91.40
19180;DHT22;9722;48.754;8.868;2023-01-19T18:24:04;-1.10;91.50
19180;DHT22;9722;48.754;8.868;2023-01-19T18:27:25;-1.20;91.70
19180;DHT22;9722;48.754;8.868;2023-01-19T18:30:45;-1.30;91.80
19180;DHT22;9722;48.754;8.868;2023-01-19T18:34:06;-1.40;91.90
19180;DHT22;9722;48.754;8.868;2023-01-19T18:37:26;-1.40;92.10
19180;DHT22;9722;48.754;8.868;2023-01-19T18:40:47;-1.50;92.10
19180;DHT22;9722;48.754;8.868;2023-01-19T18:44:11;-1.60;92.10
19180;DHT22;9722;48.754;8.868;2023-01-19T18:47:31;-1.80;92.00
19180;DHT22;9722;48.754;8.868;2023-01-19T18:50:52;-1.90;92.50
19180;DHT22;9722;48.754;8.868;2023-01-19T18:54:13;-1.90;92.90
19180;DHT22;9722;48.754;8.868;2023-01-19T18:57:34;-1.90;93.10
19180;DHT22;9722;48.754;8.868;2023-01-19T19:00:55;-1.80;93.20
19180;DHT22;9722;48.754;8.868;2023-01-19T19:04:15;-1.70;93.30
19180;DHT22;9722;48.754;8.868;2023-01-19T19:07:36;-1.50;93.60
19180;DHT22;9722;48.754;8.868;2023-01-19T19:10:56;-1.40;93.60
19180;DHT22;9722;48.754;8.868;2023-01-19T19:14:17;-1.30;93.60
19180;DHT22;9722;48.754;8.868;2023-01-19T19:17:38;-1.20;93.70
19180;DHT22;9722;48.754;8.868;2023-01-19T19:21:05;-1.10;93.70
19180;DHT22;9722;48.754;8.868;2023-01-19T19:24:26;-1.20;93.80
19180;DHT22;9722;48.754;8.868;2023-01-19T19:27:51;-1.20;93.90
19180;DHT22;9722;48.754;8.868;2023-01-19T19:31:15;-1.20;94.00
19180;DHT22;9722;48.754;8.868;2023-01-19T19:34:36;-1.20;94.40
19180;DHT22;9722;48.754;8.868;2023-01-19T19:37:56;-1.20;94.20
19180;DHT22;9722;48.754;8.868;2023-01-19T19:41:20;-1.20;94.30
19180;DHT22;9722;48.754;8.868;2023-01-19T19:44:41;-1.10;94.60
19180;DHT22;9722;48.754;8.868;2023-01-19T19:48:01;-1.10;94.80
19180;DHT22;9722;48.754;8.868;2023-01-19T19:51:24;-1.00;94.70
19180;DHT22;9722;48.754;8.868;2023-01-19T19:54:47;-1.00;94.80
19180;DHT22;9722;48.754;8.868;2023-01-19T19:58:07;-1.00;94.80
19180;DHT22;9722;48.754;8.868;2023-01-19T20:01:29;-1.00;94.90
19180;DHT22;9722;48.754;8.868;2023-01-19T20:04:51;-0.90;94.90
19180;DHT22;9722;48.754;8.868;2023-01-19T20:08:12;-0.90;94.90
19180;DHT22;9722;48.754;8.868;2023-01-19T20:11:33;-0.90;94.80
19180;DHT22;9722;48.754;8.868;2023-01-19T20:14:54;-0.90;94.90
19180;DHT22;9722;48.754;8.868;2023-01-19T20:18:14;-0.90;94.90
19180;DHT22;9722;48.754;8.868;2023-01-19T20:21:36;-1.00;94.90
19180;DHT22;9722;48.754;8.868;2023-01-19T20:24:57;-1.00;95.00
19180;DHT22;9722;48.754;8.868;2023-01-19T20:28:18;-1.00;95.10
19180;DHT22;9722;48.754;8.868;2023-01-19T20:31:43;-1.10;95.20
19180;DHT22;9722;48.754;8.868;2023-01-19T20:35:04;-1.10;95.30
19180;DHT22;9722;48.754;8.868;2023-01-19T20:38:25;-1.10;95.40
19180;DHT22;9722;48.754;8.868;2023-01-19T20:41:46;-1.10;95.40
19180;DHT22;9722;48.754;8.868;2023-01-19T20:45:07;-1.00;95.60
19180;DHT22;9722;48.754;8.868;2023-01-19T20:48:28;-0.90;95.70
19180;DHT22;9722;48.754;8.868;2023-01-19T20:51:49;-0.80;95.70
19180;DHT22;9722;48.754;8.868;2023-01-19T20:55:11;-0.80;95.70
19180;DHT22;9722;48.754;8.868;2023-01-19T20:58:33;-0.70;95.70
19180;DHT22;9722;48.754;8.868;2023-01-19T21:01:53;-0.70;95.70
19180;DHT22;9722;48.754;8.868;2023-01-19T21:05:14;-0.60;95.70
19180;DHT22;9722;48.754;8.868;2023-01-19T21:08:35;-0.60;95.70
19180;DHT22;9722;48.754;8.868;2023-01-19T21:11:55;-0.60;95.70
19180;DHT22;9722;48.754;8.868;2023-01-19T21:15:16;-0.50;95.70
19180;DHT22;9722;48.754;8.868;2023-01-19T21:18:37;-0.50;95.70
19180;DHT22;9722;48.754;8.868;2023-01-19T21:21:58;-0.50;95.70
19180;DHT22;9722;48.754;8.868;2023-01-19T21:25:19;-0.50;95.70
19180;DHT22;9722;48.754;8.868;2023-01-19T21:28:39;-0.50;95.80
19180;DHT22;9722;48.754;8.868;2023-01-19T21:32:00;-0.50;95.80
19180;DHT22;9722;48.754;8.868;2023-01-19T21:35:20;-0.50;95.80
19180;DHT22;9722;48.754;8.868;2023-01-19T21:38:41;-0.60;95.80
19180;DHT22;9722;48.754;8.868;2023-01-19T21:42:01;-0.60;95.80
19180;DHT22;9722;48.754;8.868;2023-01-19T21:45:22;-0.60;95.80
19180;DHT22;9722;48.754;8.868;2023-01-19T21:48:43;-0.70;95.80
19180;DHT22;9722;48.754;8.868;2023-01-19T21:52:03;-0.70;95.90
19180;DHT22;9722;48.754;8.868;2023-01-19T21:55:24;-0.80;96.00
19180;DHT22;9722;48.754;8.868;2023-01-19T21:58:45;-0.90;96.00
19180;DHT22;9722;48.754;8.868;2023-01-19T22:02:10;-1.00;96.00
19180;DHT22;9722;48.754;8.868;2023-01-19T22:05:34;-1.00;96.10
19180;DHT22;9722;48.754;8.868;2023-01-19T22:08:55;-1.10;96.40
19180;DHT22;9722;48.754;8.868;2023-01-19T22:12:17;-1.10;96.40
19180;DHT22;9722;48.754;8.868;2023-01-19T22:15:38;-1.10;96.50
19180;DHT22;9722;48.754;8.868;2023-01-19T22:18:59;-1.10;96.60
19180;DHT22;9722;48.754;8.868;2023-01-19T22:22:21;-1.10;96.60
19180;DHT22;9722;48.754;8.868;2023-01-19T22:25:41;-1.10;96.60
19180;DHT22;9722;48.754;8.868;2023-01-19T22:29:03;-1.10;96.60
19180;DHT22;9722;48.754;8.868;2023-01-19T22:32:24;-1.20;96.50
19180;DHT22;9722;48.754;8.868;2023-01-19T22:35:45;-1.30;96.50
19180;DHT22;9722;48.754;8.868;2023-01-19T22:39:08;-1.40;96.50